Time;durP1;ratioP1;P1;durP2;ratioP2;P2;SDS_P1;SDS_P2;PMS_P1;PMS_P2;Temp;Humidity;BMP_temperature;BMP_pressure;BME280_temperature;BME280_humidity;BME280_pressure;Samples;Min_cycle;Max_cycle;Signal;HPM_P1;HPM_P2
2021/03/13 00:00:48;;;;;;;4.25;2.40;;;;;;;;;;5035318;28;20371;-83
2021/03/13 00:03:14;;;;;;;4.47;2.15;;;;;;;;;;5041534;28;20392;-81
2021/03/13 00:05:42;;;;;;;3.33;2.08;;;;;;;;;;5047287;28;20415;-83
2021/03/13 00:08:10;;;;;;;4.60;2.30;;;;;;;;;;5046365;28;20410;-85
2021/03/13 00:10:37;;;;;;;4.35;2.20;;;;;;;;;;5041380;28;20478;-83
2021/03/13 00:13:03;;;;;;;5.23;2.60;;;;;;;;;;5046838;28;20401;-83
2021/03/13 00:15:30;;;;;;;5.57;2.30;;;;;;;;;;5048557;28;20410;-83
2021/03/13 00:17:57;;;;;;;6.82;2.50;;;;;;;;;;5051681;28;20384;-82
2021/03/13 00:20:28;;;;;;;4.67;2.50;;;;;;;;;;5051748;28;20849;-84
2021/03/13 00:22:56;;;;;;;4.45;2.60;;;;;;;;;;5049342;28;20853;-85
2021/03/13 00:25:34;;;;;;;4.28;2.50;;;;;;;;;;5033483;28;20403;-84
2021/03/13 00:28:07;;;;;;;3.92;2.72;;;;;;;;;;5033793;28;20506;-84
2021/03/13 00:30:37;;;;;;;4.55;2.83;;;;;;;;;;5031313;28;20396;-83
2021/03/13 00:33:05;;;;;;;5.35;3.00;;;;;;;;;;5031483;28;20727;-83
2021/03/13 00:35:33;;;;;;;5.25;2.80;;;;;;;;;;5049160;28;20368;-84
2021/03/13 00:38:02;;;;;;;4.88;3.13;;;;;;;;;;5051445;28;20870;-83
2021/03/13 00:40:30;;;;;;;4.68;2.88;;;;;;;;;;5050752;28;20376;-84
2021/03/13 00:42:57;;;;;;;4.47;2.67;;;;;;;;;;5051570;28;20376;-84
2021/03/13 00:45:27;;;;;;;5.07;3.00;;;;;;;;;;5033067;28;20407;-85
2021/03/13 00:47:56;;;;;;;4.35;3.05;;;;;;;;;;5036241;28;20396;-84
2021/03/13 00:50:23;;;;;;;5.03;2.92;;;;;;;;;;5036734;28;20389;-83
2021/03/13 00:52:49;;;;;;;4.35;3.00;;;;;;;;;;5050481;28;20384;-83
2021/03/13 00:55:16;;;;;;;4.90;3.50;;;;;;;;;;5033262;28;20376;-83
2021/03/13 00:57:42;;;;;;;4.60;3.47;;;;;;;;;;5033527;28;20441;-83
2021/03/13 01:00:09;;;;;;;4.50;3.50;;;;;;;;;;5050978;28;20419;-84
2021/03/13 01:02:35;;;;;;;5.57;3.42;;;;;;;;;;5051317;28;20379;-83
2021/03/13 01:05:01;;;;;;;5.82;3.38;;;;;;;;;;5051156;28;20395;-83
2021/03/13 01:07:27;;;;;;;7.10;3.87;;;;;;;;;;5033069;28;20396;-83
2021/03/13 01:09:53;;;;;;;8.23;3.90;;;;;;;;;;5032955;28;20380;-83
2021/03/13 01:12:19;;;;;;;5.88;3.60;;;;;;;;;;5050879;28;20481;-83
2021/03/13 01:14:45;;;;;;;7.57;3.67;;;;;;;;;;5051002;28;20455;-83
2021/03/13 01:17:11;;;;;;;7.60;4.25;;;;;;;;;;5050831;28;20703;-83
2021/03/13 01:19:37;;;;;;;5.00;3.55;;;;;;;;;;5050639;28;20375;-83
2021/03/13 01:22:03;;;;;;;6.72;3.83;;;;;;;;;;5031574;28;20383;-83
2021/03/13 01:24:29;;;;;;;7.85;4.00;;;;;;;;;;5033025;28;20399;-83
2021/03/13 01:26:55;;;;;;;5.38;3.90;;;;;;;;;;5032825;28;20387;-83
2021/03/13 01:29:21;;;;;;;5.40;3.70;;;;;;;;;;5050614;28;20861;-83
2021/03/13 01:31:47;;;;;;;6.22;3.63;;;;;;;;;;5050282;28;20383;-84
2021/03/13 01:34:13;;;;;;;5.38;3.80;;;;;;;;;;5032475;28;20429;-83
2021/03/13 01:36:39;;;;;;;6.45;3.72;;;;;;;;;;5050777;28;20368;-83
2021/03/13 01:39:05;;;;;;;4.60;3.80;;;;;;;;;;5050795;28;20964;-83
2021/03/13 01:41:32;;;;;;;6.07;3.78;;;;;;;;;;5032162;28;20756;-83
2021/03/13 01:43:57;;;;;;;6.40;4.05;;;;;;;;;;5032683;28;20415;-83
2021/03/13 01:46:23;;;;;;;7.30;4.30;;;;;;;;;;5050388;28;20414;-83
2021/03/13 01:48:50;;;;;;;5.40;4.00;;;;;;;;;;5050221;28;20368;-84
2021/03/13 01:51:17;;;;;;;5.65;4.03;;;;;;;;;;5031972;28;20380;-84
2021/03/13 01:53:43;;;;;;;6.50;4.13;;;;;;;;;;5050601;28;21276;-83
2021/03/13 01:56:09;;;;;;;6.22;4.32;;;;;;;;;;5032077;28;20372;-84
2021/03/13 01:58:35;;;;;;;6.30;4.23;;;;;;;;;;5049816;28;20737;-83
2021/03/13 02:01:01;;;;;;;7.13;4.50;;;;;;;;;;5031413;28;20380;-83
2021/03/13 02:03:27;;;;;;;6.65;4.35;;;;;;;;;;5032315;28;20869;-83
2021/03/13 02:05:54;;;;;;;7.28;4.70;;;;;;;;;;5049893;28;20408;-83
2021/03/13 02:08:22;;;;;;;6.03;4.33;;;;;;;;;;5049899;28;20494;-84
2021/03/13 02:11:01;;;;;;;6.43;4.28;;;;;;;;;;5049749;28;21640;-83
2021/03/13 02:13:45;;;;;;;5.95;4.43;;;;;;;;;;5031902;28;20404;-84
2021/03/13 02:16:11;;;;;;;6.60;4.50;;;;;;;;;;5031671;28;20375;-84
2021/03/13 02:18:50;;;;;;;7.53;4.63;;;;;;;;;;5032002;28;20379;-83
2021/03/13 02:21:15;;;;;;;6.47;4.85;;;;;;;;;;5031658;28;20380;-83
2021/03/13 02:24:04;;;;;;;7.60;4.83;;;;;;;;;;5032055;28;20806;-83
2021/03/13 02:26:42;;;;;;;7.00;4.88;;;;;;;;;;5049907;28;20371;-83
2021/03/13 02:29:26;;;;;;;5.38;4.53;;;;;;;;;;5031730;28;20387;-83
2021/03/13 02:31:56;;;;;;;8.40;4.55;;;;;;;;;;5031175;28;20380;-83
2021/03/13 02:34:25;;;;;;;7.47;4.80;;;;;;;;;;5049410;28;20487;-83
2021/03/13 02:36:52;;;;;;;6.40;4.60;;;;;;;;;;5049594;28;20372;-83
2021/03/13 02:39:20;;;;;;;8.13;5.00;;;;;;;;;;5049698;28;20380;-83
2021/03/13 02:41:49;;;;;;;7.13;5.03;;;;;;;;;;5030980;28;20376;-82
2021/03/13 02:44:16;;;;;;;6.25;5.15;;;;;;;;;;5031415;28;20383;-83
2021/03/13 02:46:45;;;;;;;8.77;5.32;;;;;;;;;;5031591;28;20761;-83
2021/03/13 02:49:12;;;;;;;8.25;5.20;;;;;;;;;;5031039;28;20390;-83
2021/03/13 02:51:39;;;;;;;8.65;5.78;;;;;;;;;;5031083;28;20385;-83
2021/03/13 02:54:07;;;;;;;7.32;5.85;;;;;;;;;;5031344;28;20376;-83
2021/03/13 02:56:34;;;;;;;8.63;5.38;;;;;;;;;;5049360;28;20375;-83
2021/03/13 02:59:01;;;;;;;8.90;5.43;;;;;;;;;;5031029;28;20784;-83
2021/03/13 03:01:28;;;;;;;8.43;5.07;;;;;;;;;;5048306;28;20436;-83
2021/03/13 03:03:54;;;;;;;8.87;5.03;;;;;;;;;;5031015;28;20383;-83
2021/03/13 03:06:21;;;;;;;8.05;5.07;;;;;;;;;;5048981;28;20470;-83
2021/03/13 03:08:48;;;;;;;6.80;4.57;;;;;;;;;;5049284;28;20387;-83
2021/03/13 03:11:16;;;;;;;7.70;5.25;;;;;;;;;;5048410;28;20371;-83
2021/03/13 03:13:43;;;;;;;6.82;4.88;;;;;;;;;;5030971;28;20380;-83
2021/03/13 03:16:10;;;;;;;8.35;4.75;;;;;;;;;;5030660;28;20793;-83
2021/03/13 03:18:36;;;;;;;7.63;4.60;;;;;;;;;;5030922;28;20391;-83
2021/03/13 03:21:02;;;;;;;7.53;5.15;;;;;;;;;;5048384;28;20376;-83
2021/03/13 03:23:29;;;;;;;7.45;4.97;;;;;;;;;;5031026;28;20390;-83
2021/03/13 03:25:55;;;;;;;7.13;4.60;;;;;;;;;;5030894;28;20395;-83
2021/03/13 03:28:21;;;;;;;8.43;4.97;;;;;;;;;;5030623;28;20792;-83
2021/03/13 03:30:48;;;;;;;7.93;4.70;;;;;;;;;;5048314;28;20454;-83
2021/03/13 03:33:14;;;;;;;7.75;5.30;;;;;;;;;;5048621;28;20726;-83
2021/03/13 03:35:41;;;;;;;6.00;4.70;;;;;;;;;;5030867;28;20382;-83
2021/03/13 03:38:07;;;;;;;6.30;4.70;;;;;;;;;;5048667;28;20458;-82
2021/03/13 03:40:34;;;;;;;6.80;4.80;;;;;;;;;;5030511;28;20734;-83
2021/03/13 03:43:09;;;;;;;5.97;4.97;;;;;;;;;;5030634;28;20372;-83
2021/03/13 03:45:36;;;;;;;6.97;4.70;;;;;;;;;;5034068;28;20486;-83
2021/03/13 03:48:05;;;;;;;7.47;5.32;;;;;;;;;;5052556;28;20912;-82
2021/03/13 03:50:31;;;;;;;6.72;4.72;;;;;;;;;;5034201;28;20372;-83
2021/03/13 03:52:58;;;;;;;8.20;4.93;;;;;;;;;;5052597;28;20912;-83
2021/03/13 03:55:24;;;;;;;7.07;4.35;;;;;;;;;;5052348;28;20371;-83
2021/03/13 03:57:51;;;;;;;6.97;4.30;;;;;;;;;;5052407;28;20383;-83
2021/03/13 04:00:18;;;;;;;6.25;4.55;;;;;;;;;;5033863;28;20375;-83
2021/03/13 04:02:45;;;;;;;5.68;4.13;;;;;;;;;;5052248;28;20382;-83
2021/03/13 04:05:11;;;;;;;6.47;4.18;;;;;;;;;;5052274;28;20415;-83
2021/03/13 04:07:38;;;;;;;5.45;4.22;;;;;;;;;;5052307;28;20384;-83
2021/03/13 04:10:05;;;;;;;6.80;4.45;;;;;;;;;;5052495;28;20378;-83
2021/03/13 04:12:33;;;;;;;5.15;4.20;;;;;;;;;;5034188;28;20755;-83
2021/03/13 04:14:59;;;;;;;6.20;4.22;;;;;;;;;;5052441;28;20394;-83
2021/03/13 04:17:26;;;;;;;6.22;4.20;;;;;;;;;;5051908;28;20364;-83
2021/03/13 04:19:52;;;;;;;7.07;4.10;;;;;;;;;;5051850;28;20469;-83
2021/03/13 04:22:18;;;;;;;6.20;4.05;;;;;;;;;;5052039;28;20862;-84
2021/03/13 04:24:44;;;;;;;6.03;4.00;;;;;;;;;;5034136;28;20422;-83
2021/03/13 04:27:10;;;;;;;5.43;3.97;;;;;;;;;;5051985;28;20376;-83
2021/03/13 04:29:36;;;;;;;5.72;4.03;;;;;;;;;;5033683;28;20376;-83
2021/03/13 04:32:03;;;;;;;5.63;3.80;;;;;;;;;;5033486;28;20423;-82
2021/03/13 04:34:29;;;;;;;6.27;3.90;;;;;;;;;;5051847;28;20466;-83
2021/03/13 04:36:56;;;;;;;6.00;4.23;;;;;;;;;;5033528;28;20409;-82
2021/03/13 04:39:22;;;;;;;5.13;3.25;;;;;;;;;;5033664;28;20741;-82
2021/03/13 04:41:49;;;;;;;5.35;3.47;;;;;;;;;;5051434;28;20375;-82
2021/03/13 04:44:15;;;;;;;4.38;3.50;;;;;;;;;;5051511;28;20372;-83
2021/03/13 04:46:41;;;;;;;4.63;3.40;;;;;;;;;;5051280;28;20372;-83
2021/03/13 04:49:07;;;;;;;5.28;3.55;;;;;;;;;;5051620;28;20399;-83
2021/03/13 04:51:33;;;;;;;4.05;3.22;;;;;;;;;;5051216;28;20376;-83
2021/03/13 04:53:59;;;;;;;4.43;3.08;;;;;;;;;;5051236;28;20422;-83
2021/03/13 04:56:25;;;;;;;4.32;3.47;;;;;;;;;;5051185;28;20788;-83
2021/03/13 04:58:52;;;;;;;5.35;3.22;;;;;;;;;;5051360;28;20380;-83
2021/03/13 05:01:18;;;;;;;4.82;3.17;;;;;;;;;;5033025;28;20434;-83
2021/03/13 05:03:43;;;;;;;5.03;3.20;;;;;;;;;;5051263;28;20367;-83
2021/03/13 05:06:10;;;;;;;5.68;3.00;;;;;;;;;;5051016;28;20461;-83
2021/03/13 05:08:37;;;;;;;4.32;3.15;;;;;;;;;;5051144;28;20375;-83
2021/03/13 05:11:03;;;;;;;5.50;3.05;;;;;;;;;;5032640;28;20450;-83
2021/03/13 05:13:29;;;;;;;4.63;3.00;;;;;;;;;;5051067;28;20372;-82
2021/03/13 05:15:55;;;;;;;3.95;2.80;;;;;;;;;;5033099;28;20483;-83
2021/03/13 05:18:21;;;;;;;5.10;3.10;;;;;;;;;;5033205;28;20384;-83
2021/03/13 05:20:47;;;;;;;4.82;2.80;;;;;;;;;;5032655;28;20437;-83
2021/03/13 05:23:13;;;;;;;5.40;3.08;;;;;;;;;;5032733;28;20442;-83
2021/03/13 05:25:39;;;;;;;6.17;3.10;;;;;;;;;;5033173;28;20408;-82
2021/03/13 05:28:05;;;;;;;3.08;2.70;;;;;;;;;;5032992;28;20372;-83
2021/03/13 05:30:31;;;;;;;4.88;2.97;;;;;;;;;;5050337;28;20403;-82
2021/03/13 05:32:57;;;;;;;5.53;3.20;;;;;;;;;;5050586;28;20454;-83
2021/03/13 05:35:23;;;;;;;4.40;3.00;;;;;;;;;;5050717;28;20518;-83
2021/03/13 05:37:50;;;;;;;4.60;3.10;;;;;;;;;;5032387;28;20463;-83
2021/03/13 05:40:16;;;;;;;4.22;2.90;;;;;;;;;;5032525;28;20425;-83
2021/03/13 05:42:42;;;;;;;3.90;2.67;;;;;;;;;;5050382;28;20375;-83
2021/03/13 05:45:09;;;;;;;6.15;3.00;;;;;;;;;;5032452;28;20392;-83
2021/03/13 05:47:39;;;;;;;5.72;2.78;;;;;;;;;;5050322;28;20722;-84
2021/03/13 05:50:06;;;;;;;4.95;2.78;;;;;;;;;;5031961;28;20462;-83
2021/03/13 05:52:33;;;;;;;4.55;2.95;;;;;;;;;;5032503;28;20900;-84
2021/03/13 05:54:59;;;;;;;3.13;2.50;;;;;;;;;;5050264;28;20379;-83
2021/03/13 05:57:25;;;;;;;3.88;2.85;;;;;;;;;;5050406;28;20829;-83
2021/03/13 05:59:52;;;;;;;4.07;2.97;;;;;;;;;;5031959;28;20486;-83
2021/03/13 06:02:20;;;;;;;3.78;2.63;;;;;;;;;;5032229;28;20881;-84
2021/03/13 06:04:46;;;;;;;3.35;2.42;;;;;;;;;;5049768;28;20479;-84
2021/03/13 06:07:14;;;;;;;5.53;2.65;;;;;;;;;;5031388;28;20483;-83
2021/03/13 06:09:41;;;;;;;4.20;2.70;;;;;;;;;;5049548;28;20374;-84
2021/03/13 06:12:07;;;;;;;3.20;2.55;;;;;;;;;;5032118;28;20944;-84
2021/03/13 06:14:33;;;;;;;3.10;2.50;;;;;;;;;;5050022;28;21112;-83
2021/03/13 06:16:59;;;;;;;5.20;3.00;;;;;;;;;;5049724;28;20380;-83
2021/03/13 06:19:45;;;;;;;4.60;2.97;;;;;;;;;;5031890;28;20434;-83
2021/03/13 06:22:21;;;;;;;4.68;2.97;;;;;;;;;;5049854;28;20513;-84
2021/03/13 06:24:47;;;;;;;5.85;3.25;;;;;;;;;;5031828;28;20407;-84
2021/03/13 06:27:16;;;;;;;4.22;2.75;;;;;;;;;;5031541;28;20433;-84
2021/03/13 06:29:42;;;;;;;3.30;2.80;;;;;;;;;;5049495;28;20438;-84
2021/03/13 06:32:14;;;;;;;5.88;3.47;;;;;;;;;;5031853;28;20376;-83
2021/03/13 06:34:41;;;;;;;3.83;3.10;;;;;;;;;;5031798;28;20387;-83
2021/03/13 06:37:22;;;;;;;5.03;3.43;;;;;;;;;;5031768;28;20877;-84
2021/03/13 06:39:48;;;;;;;5.45;3.70;;;;;;;;;;5049285;28;20380;-83
2021/03/13 06:42:18;;;;;;;3.78;3.17;;;;;;;;;;5031357;28;20386;-83
2021/03/13 06:45:03;;;;;;;4.97;3.63;;;;;;;;;;5031129;28;20912;-84
2021/03/13 06:47:34;;;;;;;6.50;3.92;;;;;;;;;;5031302;28;20419;-84
2021/03/13 06:50:09;;;;;;;4.15;3.55;;;;;;;;;;5030848;28;20388;-83
2021/03/13 06:52:35;;;;;;;5.20;3.87;;;;;;;;;;5049220;28;20862;-83
2021/03/13 06:55:01;;;;;;;4.55;3.50;;;;;;;;;;5049159;28;20356;-83
2021/03/13 06:57:27;;;;;;;3.85;3.20;;;;;;;;;;5031179;28;20395;-83
2021/03/13 06:59:57;;;;;;;4.05;3.50;;;;;;;;;;5048567;28;20371;-83
2021/03/13 07:02:23;;;;;;;4.35;3.70;;;;;;;;;;5048538;28;20372;-83
2021/03/13 07:04:49;;;;;;;5.55;3.70;;;;;;;;;;5049199;28;20406;-82
2021/03/13 07:07:26;;;;;;;5.93;3.70;;;;;;;;;;5030885;28;20392;-83
2021/03/13 07:09:54;;;;;;;5.95;3.63;;;;;;;;;;5030740;28;20386;-83
2021/03/13 07:12:23;;;;;;;7.38;3.95;;;;;;;;;;5029754;28;20435;-83
2021/03/13 07:14:49;;;;;;;5.18;3.90;;;;;;;;;;5047252;28;20380;-83
2021/03/13 07:17:15;;;;;;;6.22;4.13;;;;;;;;;;5048252;28;20403;-83
2021/03/13 07:19:42;;;;;;;5.17;4.20;;;;;;;;;;5029327;28;20380;-83
2021/03/13 07:22:09;;;;;;;5.45;3.95;;;;;;;;;;5030158;28;20394;-84
2021/03/13 07:24:36;;;;;;;6.55;4.72;;;;;;;;;;5048067;28;20399;-84
2021/03/13 07:27:04;;;;;;;6.45;4.05;;;;;;;;;;5030977;28;20387;-82
2021/03/13 07:29:30;;;;;;;5.97;4.50;;;;;;;;;;5030902;28;20426;-83
2021/03/13 07:31:59;;;;;;;6.60;4.90;;;;;;;;;;5048061;28;20871;-83
2021/03/13 07:34:29;;;;;;;6.43;4.75;;;;;;;;;;5028199;28;20475;-83
2021/03/13 07:36:57;;;;;;;7.10;4.57;;;;;;;;;;5021252;28;20390;-82
2021/03/13 07:39:33;;;;;;;4.70;4.18;;;;;;;;;;5048518;28;20371;-83
2021/03/13 07:42:12;;;;;;;6.78;4.65;;;;;;;;;;5029522;28;20384;-83
2021/03/13 07:44:39;;;;;;;5.53;4.43;;;;;;;;;;5010581;28;20795;-83
2021/03/13 07:47:06;;;;;;;7.43;4.57;;;;;;;;;;5010862;28;20377;-83
2021/03/13 07:49:33;;;;;;;6.28;4.30;;;;;;;;;;5028504;28;20365;-83
2021/03/13 07:52:00;;;;;;;5.10;4.60;;;;;;;;;;5028924;28;20419;-82
2021/03/13 07:54:27;;;;;;;5.50;4.63;;;;;;;;;;5047778;28;20474;-83
2021/03/13 07:56:53;;;;;;;6.17;4.23;;;;;;;;;;5048175;28;20453;-83
2021/03/13 07:59:38;;;;;;;6.97;4.82;;;;;;;;;;5046558;28;20379;-84
2021/03/13 08:02:04;;;;;;;6.47;4.63;;;;;;;;;;5047307;28;20770;-84
2021/03/13 08:04:42;;;;;;;6.80;5.03;;;;;;;;;;5046923;28;20519;-83
2021/03/13 08:07:08;;;;;;;7.10;4.80;;;;;;;;;;5046049;28;20400;-85
2021/03/13 08:09:43;;;;;;;5.73;4.57;;;;;;;;;;5047269;28;20478;-83
2021/03/13 08:12:09;;;;;;;6.97;5.13;;;;;;;;;;5039889;28;20390;-83
2021/03/13 08:14:35;;;;;;;7.83;5.60;;;;;;;;;;5045491;28;20383;-80
2021/03/13 08:17:24;;;;;;;8.75;6.00;;;;;;;;;;5045843;28;20491;-83
2021/03/13 08:20:05;;;;;;;8.18;6.03;;;;;;;;;;5045853;28;20454;-84
2021/03/13 08:22:30;;;;;;;7.47;5.63;;;;;;;;;;5046772;28;20441;-84
2021/03/13 08:24:56;;;;;;;7.72;6.13;;;;;;;;;;5031671;28;20409;-83
2021/03/13 08:27:38;;;;;;;6.57;5.40;;;;;;;;;;5035486;28;20392;-83
2021/03/13 08:30:24;;;;;;;7.83;5.50;;;;;;;;;;5042646;28;20920;-83
2021/03/13 08:32:58;;;;;;;6.82;6.07;;;;;;;;;;5030571;28;20389;-84
2021/03/13 08:35:38;;;;;;;6.83;5.60;;;;;;;;;;5042270;28;20502;-84
2021/03/13 08:38:04;;;;;;;7.30;5.93;;;;;;;;;;5044818;28;20384;-83
2021/03/13 08:40:31;;;;;;;6.63;5.45;;;;;;;;;;5036398;28;20465;-83
2021/03/13 08:42:57;;;;;;;5.75;5.03;;;;;;;;;;5018986;28;21050;-84
2021/03/13 08:45:23;;;;;;;8.63;5.20;;;;;;;;;;5037162;28;20785;-83
2021/03/13 08:47:52;;;;;;;5.97;5.05;;;;;;;;;;5043232;28;20377;-83
2021/03/13 08:50:37;;;;;;;5.60;5.00;;;;;;;;;;5050315;28;20965;-85
2021/03/13 08:53:21;;;;;;;7.80;7.00;;;;;;;;;;5034096;28;20378;-82
2021/03/13 08:55:47;;;;;;;10.47;9.33;;;;;;;;;;5043811;28;20383;-83
2021/03/13 08:58:33;;;;;;;6.70;6.10;;;;;;;;;;5043315;28;20386;-82
2021/03/13 09:01:16;;;;;;;6.03;5.03;;;;;;;;;;5040162;28;20402;-84
2021/03/13 09:03:46;;;;;;;5.95;4.75;;;;;;;;;;5050119;28;20469;-83
2021/03/13 09:06:12;;;;;;;6.20;5.10;;;;;;;;;;5041228;28;20399;-84
2021/03/13 09:08:39;;;;;;;5.22;4.55;;;;;;;;;;5044564;28;20496;-83
2021/03/13 09:11:05;;;;;;;5.53;4.70;;;;;;;;;;5045959;28;20523;-83
2021/03/13 09:13:31;;;;;;;4.75;4.30;;;;;;;;;;5048129;28;20478;-84
2021/03/13 09:15:56;;;;;;;6.70;4.45;;;;;;;;;;5031867;28;20956;-82
2021/03/13 09:18:22;;;;;;;6.22;4.80;;;;;;;;;;5047307;28;20512;-82
2021/03/13 09:20:49;;;;;;;8.50;5.53;;;;;;;;;;5019802;28;20916;-84
2021/03/13 09:23:15;;;;;;;6.65;4.90;;;;;;;;;;5049067;28;20395;-83
2021/03/13 09:25:41;;;;;;;6.55;5.00;;;;;;;;;;5049979;28;20400;-83
2021/03/13 09:28:07;;;;;;;5.07;4.47;;;;;;;;;;5049288;28;20399;-83
2021/03/13 09:30:35;;;;;;;6.13;5.05;;;;;;;;;;5048759;28;20387;-83
2021/03/13 09:33:01;;;;;;;4.80;4.40;;;;;;;;;;5047270;28;20384;-83
2021/03/13 09:35:28;;;;;;;5.97;4.55;;;;;;;;;;5049662;28;20376;-83
2021/03/13 09:37:54;;;;;;;5.00;4.50;;;;;;;;;;5043676;28;20381;-83
2021/03/13 09:40:22;;;;;;;5.47;4.93;;;;;;;;;;5048284;28;20466;-84
2021/03/13 09:42:49;;;;;;;5.20;4.50;;;;;;;;;;5020391;28;20371;-86
2021/03/13 09:45:16;;;;;;;4.43;4.00;;;;;;;;;;5047555;28;20400;-82
2021/03/13 09:47:50;;;;;;;4.32;3.92;;;;;;;;;;5047326;28;20383;-86
2021/03/13 09:50:18;;;;;;;4.32;3.92;;;;;;;;;;5048630;28;20973;-84
2021/03/13 09:52:45;;;;;;;5.85;4.25;;;;;;;;;;5049689;28;20450;-84
2021/03/13 09:55:15;;;;;;;5.87;3.93;;;;;;;;;;5034038;28;20390;-86
2021/03/13 09:57:43;;;;;;;4.53;3.95;;;;;;;;;;5040500;28;20489;-83
2021/03/13 10:00:18;;;;;;;4.22;3.80;;;;;;;;;;5022603;28;20392;-82
2021/03/13 10:02:45;;;;;;;4.53;3.85;;;;;;;;;;5047255;28;20411;-83
2021/03/13 10:05:15;;;;;;;5.47;4.03;;;;;;;;;;5049720;28;20427;-84
2021/03/13 10:07:41;;;;;;;4.93;3.92;;;;;;;;;;5049431;28;20380;-82
2021/03/13 10:10:08;;;;;;;5.45;3.60;;;;;;;;;;5045409;28;20408;-82
2021/03/13 10:12:36;;;;;;;3.72;3.42;;;;;;;;;;5053249;28;20392;-83
2021/03/13 10:15:20;;;;;;;4.20;3.60;;;;;;;;;;5048821;28;20380;-83
2021/03/13 10:17:50;;;;;;;2.83;2.58;;;;;;;;;;5046951;28;20380;-83
2021/03/13 10:20:16;;;;;;;3.40;3.00;;;;;;;;;;5047999;28;20375;-84
2021/03/13 10:22:42;;;;;;;4.25;3.15;;;;;;;;;;5047248;28;20399;-85
2021/03/13 10:25:09;;;;;;;3.50;3.20;;;;;;;;;;5047258;28;20412;-83
2021/03/13 10:27:36;;;;;;;3.95;3.17;;;;;;;;;;5049074;28;20410;-83
2021/03/13 10:30:04;;;;;;;3.13;2.92;;;;;;;;;;5048253;28;20394;-82
2021/03/13 10:32:34;;;;;;;2.90;2.70;;;;;;;;;;5048087;28;20402;-84
2021/03/13 10:35:27;;;;;;;2.73;2.40;;;;;;;;;;5030538;28;20468;-84
2021/03/13 10:37:53;;;;;;;3.28;2.67;;;;;;;;;;5039464;28;20435;-84
2021/03/13 10:40:37;;;;;;;4.28;2.30;;;;;;;;;;5038291;28;20393;-83
2021/03/13 10:43:26;;;;;;;2.63;2.10;;;;;;;;;;5021867;28;20392;-83
2021/03/13 10:45:58;;;;;;;3.28;2.47;;;;;;;;;;5044423;28;20770;-83
2021/03/13 10:48:24;;;;;;;2.40;2.20;;;;;;;;;;5023782;28;20520;-82
2021/03/13 10:50:50;;;;;;;2.25;1.85;;;;;;;;;;5047905;28;20384;-83
2021/03/13 10:53:28;;;;;;;2.75;2.00;;;;;;;;;;5047390;28;20830;-84
2021/03/13 10:56:04;;;;;;;2.92;2.20;;;;;;;;;;5047826;28;20406;-84
2021/03/13 10:58:31;;;;;;;2.00;1.80;;;;;;;;;;5045827;28;20391;-85
2021/03/13 11:00:58;;;;;;;2.40;2.00;;;;;;;;;;5028464;28;20404;-84
2021/03/13 11:03:25;;;;;;;2.20;1.85;;;;;;;;;;5048292;28;20465;-86
2021/03/13 11:09:11;;;;;;;2.00;1.80;;;;;;;;;;5024547;28;20444;-83
2021/03/13 11:11:39;;;;;;;2.55;1.80;;;;;;;;;;5025065;28;20399;-83
2021/03/13 11:14:07;;;;;;;2.17;1.80;;;;;;;;;;5027364;28;20404;-82
2021/03/13 11:16:43;;;;;;;2.50;1.90;;;;;;;;;;5038040;28;20427;-83
2021/03/13 11:19:11;;;;;;;2.60;2.20;;;;;;;;;;5001817;28;20474;-82
2021/03/13 11:21:37;;;;;;;2.28;1.50;;;;;;;;;;5020931;28;20414;-82
2021/03/13 11:24:03;;;;;;;1.60;1.50;;;;;;;;;;5027958;28;20393;-84
2021/03/13 11:26:29;;;;;;;1.67;1.50;;;;;;;;;;5010090;28;20445;-84
2021/03/13 11:28:55;;;;;;;2.40;1.52;;;;;;;;;;5010899;28;20424;-82
2021/03/13 11:31:21;;;;;;;1.90;1.40;;;;;;;;;;5028536;28;20416;-82
2021/03/13 11:33:49;;;;;;;2.15;1.30;;;;;;;;;;5028059;28;20381;-82
2021/03/13 11:36:16;;;;;;;2.13;1.30;;;;;;;;;;5004406;28;20389;-83
2021/03/13 11:38:44;;;;;;;2.15;1.40;;;;;;;;;;5029098;28;20446;-83
2021/03/13 11:41:10;;;;;;;1.65;1.35;;;;;;;;;;5038072;28;20873;-81
2021/03/13 11:43:38;;;;;;;2.30;1.38;;;;;;;;;;5043797;28;20439;-82
2021/03/13 11:46:05;;;;;;;1.58;1.30;;;;;;;;;;5026003;28;20409;-84
2021/03/13 11:48:31;;;;;;;2.13;1.27;;;;;;;;;;5024270;28;20496;-81
2021/03/13 11:50:57;;;;;;;1.65;1.15;;;;;;;;;;5026046;28;20377;-82
2021/03/13 11:53:23;;;;;;;1.20;1.00;;;;;;;;;;5004196;28;20455;-82
2021/03/13 11:55:50;;;;;;;3.05;1.50;;;;;;;;;;5006677;28;20444;-83
2021/03/13 11:58:16;;;;;;;2.05;1.17;;;;;;;;;;5026579;28;20377;-85
2021/03/13 12:00:42;;;;;;;3.15;1.30;;;;;;;;;;5026409;28;20409;-81
2021/03/13 12:03:08;;;;;;;1.63;1.10;;;;;;;;;;5028902;28;20401;-82
2021/03/13 12:05:34;;;;;;;1.80;1.20;;;;;;;;;;5029579;28;20424;-85
2021/03/13 12:08:01;;;;;;;3.70;1.42;;;;;;;;;;5027365;28;20901;-80
2021/03/13 12:10:27;;;;;;;3.35;1.75;;;;;;;;;;5024680;28;20404;-82
2021/03/13 12:12:53;;;;;;;1.35;1.10;;;;;;;;;;5029862;28;20409;-84
2021/03/13 12:15:22;;;;;;;1.33;1.03;;;;;;;;;;5031254;28;20875;-84
2021/03/13 12:17:48;;;;;;;2.27;1.20;;;;;;;;;;5007518;28;20455;-82
2021/03/13 12:20:14;;;;;;;2.53;1.00;;;11.80;99.90;;;;;;5025504;28;20436;-82
2021/03/13 12:22:40;;;;;;;1.70;1.00;;;11.70;99.90;;;;;;5036013;28;20988;-83
2021/03/13 12:25:07;;;;;;;2.97;1.10;;;11.60;99.90;;;;;;5010261;28;20401;-83
2021/03/13 12:27:39;;;;;;;1.98;1.00;;;11.50;99.90;;;;;;5028813;28;20389;-84
2021/03/13 12:30:09;;;;;;;2.17;1.30;;;11.50;99.90;;;;;;5034291;28;20386;-84
2021/03/13 12:32:35;;;;;;;1.20;0.93;;;11.30;99.90;;;;;;5027887;28;20408;-83
2021/03/13 12:35:03;;;;;;;1.38;1.02;;;11.20;99.90;;;;;;5033223;28;20383;-84
2021/03/13 12:37:29;;;;;;;2.00;1.10;;;11.10;99.90;;;;;;5032894;28;20393;-82
2021/03/13 12:39:55;;;;;;;1.73;1.38;;;11.00;99.90;;;;;;5032633;28;20390;-82
2021/03/13 12:42:21;;;;;;;1.52;1.00;;;11.00;99.90;;;;;;5013655;28;20416;-82
2021/03/13 12:44:47;;;;;;;4.50;1.23;;;10.90;99.90;;;;;;5033328;28;20994;-81
2021/03/13 12:47:14;;;;;;;1.30;0.80;;;10.80;99.90;;;;;;5013342;28;20912;-84
2021/03/13 12:49:40;;;;;;;2.33;1.10;;;10.80;99.90;;;;;;5039779;28;20417;-84
2021/03/13 12:52:06;;;;;;;1.00;0.77;;;10.70;99.90;;;;;;5017919;28;20473;-83
2021/03/13 12:54:31;;;;;;;2.60;1.27;;;10.50;99.90;;;;;;5040065;28;20458;-84
2021/03/13 12:56:58;;;;;;;2.28;1.40;;;10.00;99.90;;;;;;5037525;28;20369;-82
2021/03/13 12:59:24;;;;;;;3.87;1.80;;;9.60;99.90;;;;;;5039646;28;20862;-80
2021/03/13 13:01:49;;;;;;;2.27;2.00;;;9.30;99.90;;;;;;5041410;28;20393;-82
2021/03/13 13:04:15;;;;;;;4.07;2.92;;;9.30;99.90;;;;;;5034409;28;20467;-81
2021/03/13 13:06:40;;;;;;;3.27;1.90;;;9.20;99.90;;;;;;5031429;28;20401;-80
2021/03/13 13:09:06;;;;;;;2.83;1.30;;;9.30;99.90;;;;;;5040329;28;20889;-82
2021/03/13 13:11:32;;;;;;;2.45;1.50;;;9.20;99.90;;;;;;5036304;28;20389;-81
2021/03/13 13:13:57;;;;;;;2.63;1.50;;;9.20;99.90;;;;;;5037120;28;20789;-80
2021/03/13 13:16:23;;;;;;;2.40;1.30;;;9.30;99.90;;;;;;5037930;28;20383;-83
2021/03/13 13:18:49;;;;;;;3.53;1.57;;;9.40;99.90;;;;;;5037673;28;20393;-80
2021/03/13 13:21:15;;;;;;;3.70;2.78;;;9.40;99.90;;;;;;5036888;28;20409;-81
2021/03/13 13:23:41;;;;;;;2.35;0.93;;;9.40;99.90;;;;;;5014984;28;20450;-81
2021/03/13 13:26:07;;;;;;;3.28;2.20;;;9.30;99.90;;;;;;5021725;28;20415;-82
2021/03/13 13:28:33;;;;;;;1.48;0.75;;;9.30;99.90;;;;;;5024025;28;20399;-82
2021/03/13 13:30:59;;;;;;;1.45;1.05;;;9.30;99.90;;;;;;5039628;28;20378;-81
2021/03/13 13:33:27;;;;;;;1.90;1.10;;;9.30;99.90;;;;;;5022164;28;20388;-89
2021/03/13 13:35:53;;;;;;;2.25;1.48;;;9.30;99.90;;;;;;5034528;28;20447;-81
2021/03/13 13:38:19;;;;;;;5.33;1.70;;;9.50;99.90;;;;;;5039451;28;20886;-83
2021/03/13 13:40:47;;;;;;;3.50;1.53;;;9.50;99.90;;;;;;5011678;28;20475;-80
2021/03/13 13:43:14;;;;;;;3.77;1.70;;;9.40;99.90;;;;;;5022331;28;20457;-82
2021/03/13 13:45:40;;;;;;;5.28;1.90;;;9.40;99.90;;;;;;5029625;28;20483;-80
2021/03/13 13:48:06;;;;;;;4.35;1.80;;;9.40;99.90;;;;;;5027968;28;20888;-85
2021/03/13 13:50:32;;;;;;;4.20;1.55;;;9.40;99.90;;;;;;5029563;28;20381;-81
2021/03/13 13:52:59;;;;;;;7.30;2.30;;;9.30;99.90;;;;;;5012354;28;20390;-81
2021/03/13 13:55:25;;;;;;;8.15;2.00;;;9.40;99.90;;;;;;5029763;28;20743;-83
2021/03/13 13:57:51;;;;;;;5.60;1.45;;;9.50;99.90;;;;;;5018910;28;20394;-86
2021/03/13 14:00:19;;;;;;;5.28;1.67;;;9.50;99.90;;;;;;5026981;28;20389;-84
2021/03/13 14:02:48;;;;;;;6.88;1.63;;;9.60;99.90;;;;;;5028830;28;20404;-82
2021/03/13 14:05:14;;;;;;;5.18;1.60;;;9.70;99.90;;;;;;4996184;28;20770;-83
2021/03/13 14:07:40;;;;;;;4.60;1.73;;;9.80;99.90;;;;;;5028878;28;20421;-84
2021/03/13 14:10:07;;;;;;;5.90;2.13;;;10.00;99.90;;;;;;5029280;28;20522;-84
2021/03/13 14:12:33;;;;;;;9.57;4.50;;;10.10;99.90;;;;;;5029466;28;20491;-85
2021/03/13 14:14:59;;;;;;;7.88;4.05;;;10.10;99.90;;;;;;5029725;28;20461;-83
2021/03/13 14:17:24;;;;;;;5.97;3.03;;;10.20;99.90;;;;;;5029644;28;20398;-83
2021/03/13 14:19:50;;;;;;;6.80;2.20;;;10.20;99.90;;;;;;5035301;28;20387;-83
2021/03/13 14:22:16;;;;;;;4.05;1.73;;;10.30;99.90;;;;;;5014207;28;20424;-83
2021/03/13 14:24:42;;;;;;;3.33;1.25;;;9.90;99.90;;;;;;5029915;28;20467;-83
2021/03/13 14:27:08;;;;;;;4.88;1.45;;;9.90;99.90;;;;;;5009621;28;20433;-86
2021/03/13 14:29:36;;;;;;;3.92;1.35;;;10.00;99.90;;;;;;5009249;28;20421;-85
2021/03/13 14:32:04;;;;;;;4.55;1.40;;;10.00;99.90;;;;;;5025240;28;20748;-85